Time;durP1;ratioP1;P1;durP2;ratioP2;P2;SDS_P1;SDS_P2;PMS_P1;PMS_P2;Temp;Humidity;BMP_temperature;BMP_pressure;BME280_temperature;BME280_humidity;BME280_pressure;Samples;Min_cycle;Max_cycle;Signal;HPM_P1;HPM_P2
2022/04/09 00:01:59;;;;;;;10.85;3.50;;;19.50;56.90;;;;;;4957070;28;20217;-56
2022/04/09 00:04:29;;;;;;;10.65;3.95;;;19.60;56.90;;;;;;4971489;28;20350;-55
2022/04/09 00:06:59;;;;;;;6.20;3.67;;;19.60;56.90;;;;;;4972533;28;20278;-55
2022/04/09 00:09:30;;;;;;;8.82;3.75;;;19.60;56.90;;;;;;4971691;28;20218;-50
2022/04/09 00:12:00;;;;;;;8.63;3.80;;;19.60;56.90;;;;;;4972014;28;20237;-54
2022/04/09 00:14:31;;;;;;;7.93;3.53;;;19.70;57.00;;;;;;4971156;28;20627;-54
2022/04/09 00:17:03;;;;;;;7.32;3.63;;;19.70;57.00;;;;;;4976877;23;20322;-62
2022/04/09 00:19:33;;;;;;;8.60;3.30;;;19.70;56.90;;;;;;4951547;28;20306;-62
2022/04/09 00:22:04;;;;;;;8.98;4.03;;;19.80;56.90;;;;;;4951885;28;20199;-62
2022/04/09 00:24:35;;;;;;;9.05;3.40;;;19.80;56.80;;;;;;4952262;28;20727;-62
2022/04/09 00:27:05;;;;;;;9.68;3.72;;;19.80;56.80;;;;;;4950564;28;21750;-61
2022/04/09 00:29:36;;;;;;;8.02;3.55;;;19.80;56.70;;;;;;4951427;28;20305;-62
2022/04/09 00:32:09;;;;;;;6.47;3.40;;;19.90;56.80;;;;;;4951613;28;20307;-61
2022/04/09 00:34:39;;;;;;;8.40;2.97;;;19.90;56.80;;;;;;4945834;28;20257;-61
2022/04/09 00:37:10;;;;;;;5.97;3.15;;;19.90;56.80;;;;;;4951470;28;20778;-62
2022/04/09 00:39:40;;;;;;;5.53;3.10;;;19.90;56.70;;;;;;4951420;28;21001;-62
2022/04/09 00:42:17;;;;;;;6.70;3.38;;;19.90;56.60;;;;;;4952054;28;20636;-61
2022/04/09 00:44:47;;;;;;;7.10;3.10;;;20.00;56.70;;;;;;4950854;29;20220;-61
2022/04/09 00:47:20;;;;;;;9.07;3.78;;;20.00;56.70;;;;;;4951321;28;20694;-61
2022/04/09 00:49:51;;;;;;;8.35;3.40;;;20.00;56.70;;;;;;4951388;28;20333;-62
2022/04/09 00:52:25;;;;;;;10.60;3.97;;;20.00;56.70;;;;;;4951198;28;20290;-62
2022/04/09 00:54:58;;;;;;;9.63;3.72;;;20.10;56.70;;;;;;4951017;28;20203;-62
2022/04/09 00:57:29;;;;;;;8.10;3.13;;;20.10;56.60;;;;;;4951979;28;20313;-64
2022/04/09 01:00:01;;;;;;;8.10;3.30;;;20.10;56.60;;;;;;4951286;28;20297;-62
2022/04/09 01:02:33;;;;;;;5.57;2.67;;;20.20;56.60;;;;;;4952605;28;20195;-62
2022/04/09 01:05:05;;;;;;;7.82;3.45;;;20.20;56.60;;;;;;4951717;28;20290;-62
2022/04/09 01:07:36;;;;;;;5.35;2.92;;;20.20;56.60;;;;;;4952112;28;20282;-60
2022/04/09 01:10:08;;;;;;;7.10;3.13;;;20.30;56.60;;;;;;4951494;28;20226;-60
2022/04/09 01:12:39;;;;;;;7.80;3.15;;;20.30;56.50;;;;;;4951735;28;20605;-60
2022/04/09 01:15:11;;;;;;;7.15;3.00;;;20.30;56.50;;;;;;4951103;28;20635;-60
2022/04/09 01:17:44;;;;;;;8.30;3.63;;;20.30;56.40;;;;;;4967789;23;20249;-58
2022/04/09 01:20:22;;;;;;;8.75;3.25;;;20.40;56.40;;;;;;4952085;28;20305;-56
2022/04/09 01:22:54;;;;;;;8.60;3.38;;;20.40;56.40;;;;;;4951230;28;20310;-55
2022/04/09 01:25:25;;;;;;;9.13;3.35;;;20.40;56.50;;;;;;4951727;28;20233;-55
2022/04/09 01:27:55;;;;;;;6.93;3.05;;;20.40;56.30;;;;;;4950992;28;20282;-55
2022/04/09 01:30:26;;;;;;;7.65;3.30;;;20.50;56.30;;;;;;4951474;28;20293;-54
2022/04/09 01:32:56;;;;;;;8.73;3.67;;;20.50;56.30;;;;;;4951654;28;20656;-58
2022/04/09 01:35:27;;;;;;;7.35;3.50;;;20.50;56.30;;;;;;4951002;28;21034;-57
2022/04/09 01:37:59;;;;;;;7.13;2.75;;;20.50;56.30;;;;;;4951364;28;20318;-56
2022/04/09 01:40:29;;;;;;;7.65;3.13;;;20.50;56.30;;;;;;4951490;28;20297;-53
2022/04/09 01:43:00;;;;;;;10.18;3.80;;;20.60;56.20;;;;;;4951457;28;20282;-57
2022/04/09 01:45:30;;;;;;;8.00;3.60;;;20.60;56.20;;;;;;4951606;28;20286;-57
2022/04/09 01:48:01;;;;;;;7.05;2.85;;;20.60;56.10;;;;;;4951854;28;20289;-57
2022/04/09 01:50:32;;;;;;;7.03;2.78;;;20.60;56.00;;;;;;4952221;28;20716;-57
2022/04/09 01:53:04;;;;;;;8.02;3.30;;;20.70;56.00;;;;;;4953268;28;20230;-54
2022/04/09 01:55:35;;;;;;;8.18;3.08;;;20.70;56.00;;;;;;4952832;28;20211;-56
2022/04/09 01:58:05;;;;;;;8.85;3.28;;;20.70;55.90;;;;;;4952152;28;20370;-54
2022/04/09 02:00:36;;;;;;;7.53;2.95;;;20.80;55.80;;;;;;4951732;28;20774;-55
2022/04/09 02:03:07;;;;;;;9.55;3.55;;;20.80;55.80;;;;;;4952308;28;20289;-53
2022/04/09 02:05:37;;;;;;;8.48;3.38;;;20.80;55.80;;;;;;4942147;28;20283;-57
2022/04/09 02:08:10;;;;;;;8.50;3.47;;;20.80;55.60;;;;;;4933239;29;20234;-57
2022/04/09 02:10:40;;;;;;;9.75;3.22;;;20.80;55.50;;;;;;4932573;29;20783;-58
2022/04/09 02:13:14;;;;;;;7.90;3.05;;;20.90;55.50;;;;;;4933037;29;20282;-57
2022/04/09 02:15:53;;;;;;;9.93;3.15;;;20.90;55.30;;;;;;4932735;29;20294;-58
2022/04/09 02:18:23;;;;;;;6.32;2.97;;;20.90;55.30;;;;;;4932606;29;20601;-56
2022/04/09 02:20:55;;;;;;;8.40;2.95;;;20.90;55.30;;;;;;4932589;29;20628;-57
2022/04/09 02:23:27;;;;;;;7.43;3.10;;;21.00;55.40;;;;;;4932912;29;20207;-57
2022/04/09 02:25:57;;;;;;;7.75;3.08;;;21.00;55.40;;;;;;4941467;29;20286;-58
2022/04/09 02:28:28;;;;;;;6.40;2.78;;;21.00;55.40;;;;;;4951945;28;20195;-56
2022/04/09 02:30:58;;;;;;;5.80;2.83;;;21.10;55.40;;;;;;4951411;28;20287;-57
2022/04/09 02:33:29;;;;;;;8.48;2.95;;;21.10;55.30;;;;;;4952737;28;20290;-54
2022/04/09 02:35:59;;;;;;;7.43;2.60;;;21.10;55.30;;;;;;4933211;29;20287;-55
2022/04/09 02:38:32;;;;;;;6.82;3.15;;;21.10;55.10;;;;;;4932933;29;20967;-54
2022/04/09 02:41:02;;;;;;;7.97;2.80;;;21.10;55.00;;;;;;4932881;29;20199;-55
2022/04/09 02:43:33;;;;;;;8.25;3.35;;;21.10;54.90;;;;;;4932671;29;20199;-56
2022/04/09 02:46:03;;;;;;;6.00;2.78;;;21.20;54.90;;;;;;4932852;29;20286;-56
2022/04/09 02:48:34;;;;;;;7.78;3.33;;;21.20;54.80;;;;;;4932738;29;20326;-54
2022/04/09 02:51:04;;;;;;;7.53;3.33;;;21.20;54.90;;;;;;4932715;29;20300;-57
2022/04/09 02:53:37;;;;;;;8.10;3.25;;;21.30;54.80;;;;;;4932133;29;20619;-57
2022/04/09 02:56:07;;;;;;;9.07;3.20;;;21.30;54.80;;;;;;4939297;29;20238;-56
2022/04/09 02:58:38;;;;;;;7.53;2.80;;;21.30;54.70;;;;;;4951624;28;20305;-54
2022/04/09 03:01:08;;;;;;;7.88;3.40;;;21.30;54.60;;;;;;4951794;28;20199;-58
2022/04/09 03:03:39;;;;;;;9.30;3.20;;;21.40;54.60;;;;;;4951737;28;20234;-57
2022/04/09 03:06:09;;;;;;;8.02;3.10;;;21.40;54.50;;;;;;4932856;29;20321;-54
2022/04/09 03:08:42;;;;;;;10.60;3.53;;;21.40;54.50;;;;;;4950522;28;20283;-57
2022/04/09 03:11:12;;;;;;;8.02;3.17;;;21.40;54.60;;;;;;4951575;28;20300;-58
2022/04/09 03:13:42;;;;;;;8.00;3.33;;;21.50;54.60;;;;;;4951662;28;20294;-57
2022/04/09 03:16:13;;;;;;;8.05;3.20;;;21.50;54.60;;;;;;4951924;28;20286;-53
2022/04/09 03:18:43;;;;;;;9.20;3.30;;;21.50;54.60;;;;;;4954123;28;20628;-56
2022/04/09 03:21:14;;;;;;;8.50;3.47;;;21.50;54.40;;;;;;4955233;29;20317;-59
2022/04/09 03:23:46;;;;;;;8.90;3.30;;;21.60;54.40;;;;;;4955511;28;20233;-56
2022/04/09 03:26:16;;;;;;;8.55;3.22;;;21.60;54.50;;;;;;4955187;28;20293;-58
2022/04/09 03:28:47;;;;;;;8.68;3.10;;;21.60;54.30;;;;;;4955135;28;20685;-55
2022/04/09 03:31:18;;;;;;;7.47;3.05;;;21.60;54.40;;;;;;4955200;28;20727;-57
2022/04/09 03:33:51;;;;;;;10.55;3.90;;;21.70;54.40;;;;;;4955065;28;20206;-55
2022/04/09 03:36:22;;;;;;;9.18;3.80;;;21.70;54.40;;;;;;4936015;29;20195;-55
2022/04/09 03:38:54;;;;;;;8.63;3.50;;;21.80;54.50;;;;;;4935509;29;20270;-55
2022/04/09 03:41:25;;;;;;;10.27;3.60;;;21.80;54.40;;;;;;4936053;29;20678;-58
2022/04/09 03:43:55;;;;;;;7.85;3.33;;;21.80;54.40;;;;;;4935710;29;20967;-54
2022/04/09 03:46:25;;;;;;;11.80;3.95;;;21.80;54.30;;;;;;4935792;29;20290;-57
2022/04/09 03:48:56;;;;;;;7.47;3.20;;;21.90;54.40;;;;;;4935710;29;20303;-55
2022/04/09 03:51:26;;;;;;;8.52;3.30;;;21.90;54.30;;;;;;4935610;29;20287;-58
2022/04/09 03:53:59;;;;;;;8.60;2.90;;;21.90;54.20;;;;;;4935684;29;20294;-58
2022/04/09 03:56:29;;;;;;;11.15;3.90;;;21.90;54.20;;;;;;4945095;29;20735;-56
2022/04/09 03:58:59;;;;;;;7.43;2.80;;;22.00;54.20;;;;;;4954263;28;20317;-56
2022/04/09 04:01:30;;;;;;;10.13;3.60;;;22.00;54.20;;;;;;4954013;28;20731;-57
2022/04/09 04:04:00;;;;;;;10.13;3.50;;;22.00;54.10;;;;;;4953953;29;20662;-54
2022/04/09 04:06:31;;;;;;;7.90;3.28;;;22.00;54.10;;;;;;4954382;29;20295;-58
2022/04/09 04:09:03;;;;;;;10.25;3.42;;;22.00;54.10;;;;;;4950114;28;20315;-56
2022/04/09 04:11:34;;;;;;;8.93;2.88;;;22.10;54.10;;;;;;4953176;28;20233;-53
2022/04/09 04:14:04;;;;;;;7.32;3.08;;;22.10;54.10;;;;;;4952724;28;20274;-57
2022/04/09 04:16:34;;;;;;;7.68;2.88;;;22.10;54.00;;;;;;4952648;28;20211;-57
2022/04/09 04:19:05;;;;;;;7.78;3.22;;;22.20;54.00;;;;;;4952834;28;20762;-57
2022/04/09 04:21:37;;;;;;;7.50;2.85;;;22.20;53.80;;;;;;4952612;28;20313;-56
2022/04/09 04:24:10;;;;;;;8.05;3.15;;;22.30;53.80;;;;;;4953068;28;20237;-56
2022/04/09 04:26:40;;;;;;;7.13;3.00;;;22.20;53.70;;;;;;4952075;28;20258;-59
2022/04/09 04:29:10;;;;;;;7.43;3.00;;;22.30;53.80;;;;;;4951787;28;20210;-53
2022/04/09 04:31:41;;;;;;;8.32;3.05;;;22.30;53.80;;;;;;4952078;28;20281;-53
2022/04/09 04:34:11;;;;;;;7.90;3.17;;;22.40;53.70;;;;;;4953002;28;20564;-53
2022/04/09 04:36:42;;;;;;;7.03;2.80;;;22.40;53.80;;;;;;4952853;28;20680;-57
2022/04/09 04:39:14;;;;;;;8.25;3.25;;;22.40;53.80;;;;;;4951613;28;20309;-59
2022/04/09 04:41:45;;;;;;;8.48;3.33;;;22.40;53.70;;;;;;4952900;28;20790;-55
2022/04/09 04:44:15;;;;;;;5.97;2.78;;;22.40;53.60;;;;;;4951563;29;20293;-56
2022/04/09 04:46:45;;;;;;;7.68;3.15;;;22.40;53.70;;;;;;4952071;28;20290;-55
2022/04/09 04:49:16;;;;;;;8.65;3.03;;;22.50;53.70;;;;;;4951564;28;20301;-57
2022/04/09 04:51:46;;;;;;;5.45;2.78;;;22.50;53.70;;;;;;4952431;28;20199;-55
2022/04/09 04:54:19;;;;;;;8.57;3.30;;;22.50;53.70;;;;;;4952102;28;20285;-54
2022/04/09 04:56:49;;;;;;;5.60;2.85;;;22.50;53.60;;;;;;4951172;28;20241;-51
2022/04/09 04:59:19;;;;;;;5.63;2.50;;;22.50;53.50;;;;;;4952062;28;20222;-49
2022/04/09 05:01:50;;;;;;;6.68;2.90;;;22.50;53.40;;;;;;4950885;28;20282;-50
2022/04/09 05:04:20;;;;;;;7.78;3.03;;;22.50;53.30;;;;;;4952298;28;20210;-50
2022/04/09 05:06:51;;;;;;;7.68;3.10;;;22.50;53.10;;;;;;4951769;28;20731;-55
2022/04/09 05:09:23;;;;;;;5.72;2.55;;;22.50;53.10;;;;;;4950290;28;20775;-53
2022/04/09 05:11:53;;;;;;;7.65;2.72;;;22.50;53.00;;;;;;4951744;28;20289;-55
2022/04/09 05:14:24;;;;;;;6.43;2.47;;;22.50;53.10;;;;;;4951591;28;20206;-52
2022/04/09 05:16:54;;;;;;;7.57;2.70;;;22.50;53.00;;;;;;4952032;28;20301;-51
2022/04/09 05:19:25;;;;;;;7.13;3.17;;;22.50;53.00;;;;;;4952290;28;20235;-59
2022/04/09 05:21:55;;;;;;;6.72;3.10;;;22.50;53.00;;;;;;4951998;28;20286;-53
2022/04/09 05:24:27;;;;;;;7.30;2.67;;;22.50;53.00;;;;;;4950410;28;20274;-57
2022/04/09 05:26:58;;;;;;;7.20;2.88;;;22.50;53.00;;;;;;4951501;28;20630;-55
2022/04/09 05:29:28;;;;;;;7.35;3.30;;;22.50;53.00;;;;;;4951410;28;20647;-58
2022/04/09 05:31:59;;;;;;;6.93;3.00;;;22.50;53.00;;;;;;4950254;28;20277;-59
2022/04/09 05:34:29;;;;;;;6.43;2.60;;;22.50;53.00;;;;;;4953528;28;20198;-55
2022/04/09 05:37:00;;;;;;;8.60;3.08;;;22.50;53.00;;;;;;4954505;28;20285;-56
2022/04/09 05:39:32;;;;;;;5.72;2.63;;;22.50;53.00;;;;;;4952198;28;20681;-53
2022/04/09 05:42:03;;;;;;;6.53;2.72;;;22.50;53.10;;;;;;4952258;28;20285;-57
2022/04/09 05:44:33;;;;;;;5.07;2.38;;;22.50;53.10;;;;;;4952921;28;20739;-51
2022/04/09 05:47:03;;;;;;;7.93;2.78;;;22.50;53.10;;;;;;4953167;28;20782;-50
2022/04/09 05:49:34;;;;;;;8.40;2.85;;;22.50;53.10;;;;;;4952482;28;20961;-59
2022/04/09 05:52:05;;;;;;;4.82;2.65;;;22.40;53.20;;;;;;4952631;28;20278;-54
2022/04/09 05:54:37;;;;;;;6.15;2.70;;;22.40;53.20;;;;;;4952848;28;20234;-55
2022/04/09 05:57:08;;;;;;;8.13;3.20;;;22.40;53.20;;;;;;4952740;28;20298;-56
2022/04/09 05:59:39;;;;;;;6.05;2.95;;;22.40;53.20;;;;;;4953113;28;20254;-54
2022/04/09 06:02:10;;;;;;;5.68;2.83;;;22.40;53.20;;;;;;4952696;28;20191;-59
2022/04/09 06:04:41;;;;;;;7.68;2.97;;;22.40;53.20;;;;;;4952403;28;20281;-58
2022/04/09 06:07:13;;;;;;;6.63;2.60;;;22.40;53.30;;;;;;4952747;28;20423;-60
2022/04/09 06:09:46;;;;;;;6.55;2.75;;;22.30;53.20;;;;;;4952764;28;20293;-59
2022/04/09 06:12:17;;;;;;;8.30;2.85;;;22.30;53.20;;;;;;4946197;28;20254;-60
2022/04/09 06:14:47;;;;;;;6.93;2.65;;;22.30;53.20;;;;;;4933236;29;20286;-62
2022/04/09 06:17:18;;;;;;;6.65;2.90;;;22.30;53.20;;;;;;4933837;29;20290;-52
2022/04/09 06:19:48;;;;;;;6.28;2.85;;;22.30;53.20;;;;;;4948642;29;20321;-61
2022/04/09 06:22:19;;;;;;;8.25;2.97;;;22.20;53.20;;;;;;4952286;28;20227;-55
2022/04/09 06:24:51;;;;;;;9.07;3.13;;;22.20;53.20;;;;;;4952421;28;20293;-56
2022/04/09 06:27:21;;;;;;;6.20;2.75;;;22.20;53.20;;;;;;4952059;28;20294;-60
2022/04/09 06:29:52;;;;;;;5.95;2.80;;;22.10;53.20;;;;;;4951442;28;20258;-58
2022/04/09 06:32:22;;;;;;;7.50;3.10;;;22.20;53.30;;;;;;4948839;28;20247;-56
2022/04/09 06:34:53;;;;;;;6.03;2.40;;;22.10;53.30;;;;;;4951431;28;20286;-60
2022/04/09 06:37:23;;;;;;;6.20;2.60;;;22.10;53.30;;;;;;4962383;28;20285;-56
2022/04/09 06:39:57;;;;;;;6.47;2.80;;;22.10;53.40;;;;;;4951921;28;20310;-60
2022/04/09 06:42:27;;;;;;;6.00;2.95;;;22.10;53.50;;;;;;4951913;28;20195;-59
2022/04/09 06:44:58;;;;;;;8.70;3.05;;;22.10;53.50;;;;;;4951945;28;20226;-61
2022/04/09 06:47:28;;;;;;;5.82;2.47;;;22.00;53.50;;;;;;4952093;28;20234;-55
2022/04/09 06:50:00;;;;;;;5.05;2.70;;;22.00;53.40;;;;;;4951721;28;20258;-59
2022/04/09 06:52:30;;;;;;;6.70;3.08;;;22.00;53.40;;;;;;4948901;28;20246;-59
2022/04/09 06:55:02;;;;;;;6.68;2.75;;;22.00;53.40;;;;;;4951679;28;20719;-62
2022/04/09 06:57:35;;;;;;;5.70;2.30;;;22.00;53.40;;;;;;4951645;28;20217;-54
2022/04/09 07:00:09;;;;;;;5.65;2.50;;;21.90;53.30;;;;;;4951511;28;20234;-60
2022/04/09 07:02:40;;;;;;;6.13;2.22;;;21.90;53.30;;;;;;4951248;28;20282;-57
2022/04/09 07:05:11;;;;;;;5.35;2.53;;;21.90;53.40;;;;;;4954072;28;20222;-58
2022/04/09 07:07:41;;;;;;;6.65;2.88;;;21.80;53.40;;;;;;4970903;28;20733;-59
2022/04/09 07:10:15;;;;;;;5.15;2.20;;;21.80;53.40;;;;;;4970709;28;20309;-59
2022/04/09 07:12:45;;;;;;;6.18;2.72;;;21.80;53.40;;;;;;4971162;28;20204;-62
2022/04/09 07:15:16;;;;;;;7.25;2.85;;;21.80;53.40;;;;;;4971026;28;20285;-60
2022/04/09 08:17:21;;;;;;;4.05;2.10;;;21.10;53.70;;;;;;5594902;23;20243;-63
2022/04/09 08:19:52;;;;;;;4.68;2.28;;;21.10;53.70;;;;;;4954422;28;20234;-60
2022/04/09 08:22:22;;;;;;;3.78;2.03;;;21.00;53.70;;;;;;4954033;28;20723;-59
2022/04/09 08:24:53;;;;;;;5.78;2.72;;;21.10;53.70;;;;;;4954406;28;20630;-64
2022/04/09 08:27:23;;;;;;;3.65;2.10;;;21.00;53.80;;;;;;4954716;28;20298;-63
2022/04/09 08:29:54;;;;;;;4.53;2.40;;;21.00;53.80;;;;;;4953979;28;20306;-57
2022/04/09 08:32:26;;;;;;;5.10;2.60;;;21.00;53.80;;;;;;4953727;28;20282;-59
2022/04/09 08:34:56;;;;;;;5.65;2.47;;;20.90;53.80;;;;;;4954429;28;20210;-59
2022/04/09 08:37:27;;;;;;;6.13;2.42;;;20.90;53.80;;;;;;4950754;28;20286;-62
2022/04/09 08:39:57;;;;;;;5.88;2.45;;;20.90;53.80;;;;;;4952485;28;20317;-59
2022/04/09 08:42:30;;;;;;;8.30;3.53;;;20.90;53.90;;;;;;4951986;28;20715;-61
2022/04/09 08:45:03;;;;;;;6.32;2.42;;;20.80;54.60;;;;;;4952244;28;20298;-59
2022/04/09 08:47:36;;;;;;;5.22;2.88;;;20.80;54.00;;;;;;4952117;28;20554;-59
2022/04/09 08:50:08;;;;;;;6.45;2.63;;;20.80;54.00;;;;;;4952806;28;20270;-56
2022/04/09 08:52:42;;;;;;;8.70;3.08;;;20.80;54.10;;;;;;4952167;28;20836;-60
2022/04/09 08:55:16;;;;;;;7.85;2.97;;;20.70;54.30;;;;;;4951922;28;20203;-65
2022/04/09 08:57:48;;;;;;;8.82;3.03;;;20.70;54.50;;;;;;4951937;28;20199;-65
2022/04/09 09:00:19;;;;;;;10.85;3.30;;;20.70;54.60;;;;;;4952198;28;20653;-60
2022/04/09 09:02:56;;;;;;;6.32;2.95;;;20.70;54.90;;;;;;4952687;28;20734;-60
2022/04/09 09:05:37;;;;;;;8.68;3.05;;;20.70;55.10;;;;;;4951813;28;20285;-59
2022/04/09 09:08:09;;;;;;;7.93;3.00;;;20.70;55.30;;;;;;4952533;28;20194;-63
2022/04/09 09:10:39;;;;;;;9.20;3.65;;;20.60;55.30;;;;;;4951254;28;20229;-62
2022/04/09 09:13:10;;;;;;;10.30;4.35;;;20.70;55.30;;;;;;4952262;28;20282;-62
2022/04/09 09:15:52;;;;;;;7.65;3.28;;;20.60;55.40;;;;;;4950453;28;20195;-63
2022/04/09 10:18:00;;;;;;;7.22;3.38;;;20.10;55.40;;;;;;5303190;23;20566;-59
2022/04/09 10:20:32;;;;;;;8.23;4.15;;;20.10;55.40;;;;;;4952092;28;20270;-59
2022/04/09 10:23:06;;;;;;;7.28;3.60;;;20.10;55.40;;;;;;4952374;28;20290;-57
2022/04/09 10:25:40;;;;;;;7.13;3.63;;;20.10;55.40;;;;;;4952679;28;20206;-58
2022/04/09 10:28:11;;;;;;;8.32;3.90;;;20.00;55.40;;;;;;4952171;28;20262;-58
2022/04/09 10:30:43;;;;;;;6.28;3.00;;;20.00;55.40;;;;;;4948246;28;20301;-57
2022/04/09 10:33:27;;;;;;;7.85;3.78;;;20.00;55.40;;;;;;4949730;29;20249;-58
2022/04/09 10:36:01;;;;;;;5.70;3.20;;;20.00;55.40;;;;;;4951656;28;20199;-58
2022/04/09 10:38:33;;;;;;;6.97;3.00;;;19.90;55.30;;;;;;4951716;28;20198;-55
2022/04/09 10:41:28;;;;;;;6.65;3.47;;;19.90;55.40;;;;;;4952051;28;20203;-55
2022/04/09 10:43:59;;;;;;;6.10;3.25;;;19.90;55.40;;;;;;4951868;28;20199;-58
2022/04/09 10:46:37;;;;;;;7.10;3.22;;;19.90;55.40;;;;;;4951925;28;20357;-59
2022/04/09 10:49:28;;;;;;;6.35;3.15;;;19.90;55.40;;;;;;4947127;28;20309;-58
2022/04/09 10:52:19;;;;;;;7.32;3.50;;;19.80;55.40;;;;;;4952147;28;20817;-57
2022/04/09 10:55:25;;;;;;;6.68;3.13;;;19.80;55.40;;;;;;4952474;28;20198;-55
2022/04/09 10:58:04;;;;;;;7.68;3.53;;;19.80;55.40;;;;;;4903641;29;20201;-58
2022/04/09 11:00:43;;;;;;;8.13;3.20;;;19.80;55.30;;;;;;4932697;29;20231;-57
2022/04/09 11:03:33;;;;;;;4.85;3.03;;;19.80;55.40;;;;;;4944174;29;20203;-57
2022/04/09 11:06:43;;;;;;;5.35;2.97;;;19.80;55.40;;;;;;4951822;28;20203;-56
2022/04/09 11:09:14;;;;;;;6.45;3.22;;;19.70;55.40;;;;;;4951806;28;20670;-58
2022/04/09 11:11:44;;;;;;;6.07;2.63;;;19.70;55.30;;;;;;4951796;28;20246;-57
2022/04/09 11:14:14;;;;;;;4.70;3.08;;;19.70;55.30;;;;;;4951884;28;20206;-58
2022/04/09 11:16:46;;;;;;;4.65;2.90;;;19.60;55.30;;;;;;4952104;28;20282;-57
2022/04/09 11:19:17;;;;;;;6.53;3.05;;;19.60;55.30;;;;;;4951779;28;20222;-58
2022/04/09 11:21:53;;;;;;;5.28;2.97;;;19.60;55.40;;;;;;4951599;28;20241;-58
2022/04/09 11:24:24;;;;;;;6.97;2.83;;;19.60;55.40;;;;;;4951864;28;20245;-57
2022/04/09 11:26:58;;;;;;;6.55;2.90;;;19.60;55.40;;;;;;4951545;28;20294;-58
2022/04/09 11:29:36;;;;;;;5.95;3.22;;;19.60;55.40;;;;;;4951388;28;20301;-58
2022/04/09 11:32:07;;;;;;;5.10;2.47;;;19.60;55.40;;;;;;4951295;28;20237;-57
2022/04/09 11:34:57;;;;;;;7.40;3.58;;;19.50;55.40;;;;;;4951673;28;20285;-57
2022/04/09 11:37:32;;;;;;;5.82;3.25;;;19.50;55.40;;;;;;4951804;28;20286;-57
2022/04/09 11:40:09;;;;;;;5.65;2.65;;;19.50;55.40;;;;;;4954599;28;20236;-58
2022/04/09 11:42:49;;;;;;;6.38;2.70;;;19.50;55.40;;;;;;4954943;28;20237;-58
2022/04/09 11:45:23;;;;;;;6.53;3.08;;;19.50;55.50;;;;;;4955220;28;20198;-56
2022/04/09 11:47:55;;;;;;;4.35;2.75;;;19.40;55.40;;;;;;4954750;28;20285;-58
2022/04/09 11:50:25;;;;;;;4.35;2.60;;;19.40;55.40;;;;;;4955120;28;20301;-56
2022/04/09 11:52:57;;;;;;;4.55;2.70;;;19.40;55.40;;;;;;4955221;28;20237;-57
2022/04/09 11:55:31;;;;;;;3.78;2.53;;;19.40;55.40;;;;;;4955262;28;20205;-57
2022/04/09 11:58:02;;;;;;;4.60;2.70;;;19.40;55.40;;;;;;4955015;28;20293;-56
2022/04/09 12:00:32;;;;;;;5.07;2.78;;;19.40;56.00;;;;;;4954887;28;20317;-56
2022/04/09 12:03:05;;;;;;;5.50;3.03;;;19.40;55.40;;;;;;4954779;28;20231;-58
2022/04/09 12:05:41;;;;;;;6.13;2.60;;;19.40;55.40;;;;;;4954880;28;20297;-55
2022/04/09 12:08:17;;;;;;;5.72;3.00;;;19.40;55.40;;;;;;4955073;28;20195;-57
2022/04/09 12:10:57;;;;;;;5.10;2.78;;;19.30;55.40;;;;;;4954312;28;20226;-58
2022/04/09 12:13:29;;;;;;;5.72;2.42;;;19.30;55.40;;;;;;4954533;28;20281;-57
2022/04/09 12:16:04;;;;;;;5.78;2.83;;;19.30;55.40;;;;;;4954469;28;20290;-58
2022/04/09 12:18:36;;;;;;;5.43;2.70;;;19.30;55.40;;;;;;4954688;28;20292;-58
2022/04/09 12:21:21;;;;;;;4.78;2.60;;;19.20;55.40;;;;;;4954497;28;20742;-57
2022/04/09 12:24:05;;;;;;;5.15;2.63;;;19.20;55.40;;;;;;4954565;28;20294;-57
2022/04/09 12:26:36;;;;;;;4.90;2.25;;;19.20;55.40;;;;;;4954072;28;20206;-57
2022/04/09 12:29:14;;;;;;;6.15;2.70;;;19.20;55.40;;;;;;4954157;28;20210;-58
2022/04/09 12:31:46;;;;;;;4.95;2.60;;;19.20;55.50;;;;;;4954433;28;20210;-56
2022/04/09 12:34:16;;;;;;;4.88;2.45;;;19.20;55.40;;;;;;4946034;28;20723;-58
2022/04/09 12:37:01;;;;;;;4.95;2.40;;;19.20;55.40;;;;;;4935242;29;20381;-57
2022/04/09 12:39:34;;;;;;;4.70;2.58;;;19.20;55.40;;;;;;4934822;29;20244;-57
2022/04/09 12:42:04;;;;;;;5.30;2.78;;;19.10;56.00;;;;;;4937136;29;20202;-58
2022/04/09 12:44:36;;;;;;;4.53;2.45;;;19.10;55.40;;;;;;4934850;29;20207;-58
2022/04/09 12:47:08;;;;;;;4.53;2.67;;;19.10;55.40;;;;;;4934614;29;20231;-56
2022/04/09 12:49:39;;;;;;;4.95;2.50;;;19.10;55.40;;;;;;4951923;28;20319;-55
2022/04/09 12:52:11;;;;;;;3.97;2.05;;;19.10;55.40;;;;;;4954298;28;20198;-56
2022/04/09 12:54:43;;;;;;;3.38;2.15;;;19.10;55.40;;;;;;4953859;28;20281;-58
2022/04/09 12:57:14;;;;;;;4.78;2.58;;;19.10;55.40;;;;;;4953481;28;20297;-53
2022/04/09 12:59:45;;;;;;;4.45;2.65;;;19.00;55.40;;;;;;4953583;28;20310;-56
2022/04/09 13:02:16;;;;;;;3.58;2.15;;;19.00;55.40;;;;;;4953554;28;20642;-58
2022/04/09 13:04:46;;;;;;;5.13;2.60;;;19.00;55.40;;;;;;4953252;28;20203;-54
2022/04/09 13:07:17;;;;;;;2.97;2.10;;;19.00;55.40;;;;;;4953577;28;20564;-54
2022/04/09 13:09:49;;;;;;;3.67;2.15;;;19.00;55.50;;;;;;4953680;28;20302;-55
2022/04/09 13:12:20;;;;;;;4.13;2.40;;;19.00;55.50;;;;;;4953869;28;20690;-58
2022/04/09 13:14:50;;;;;;;3.85;2.30;;;18.90;55.40;;;;;;4953423;28;20289;-55
2022/04/09 13:17:20;;;;;;;3.78;2.13;;;18.90;55.40;;;;;;4953960;28;20289;-56
2022/04/09 13:19:51;;;;;;;4.10;2.38;;;18.90;55.40;;;;;;4953797;28;20325;-58
2022/04/09 13:22:21;;;;;;;6.30;2.75;;;18.90;55.40;;;;;;4954126;28;20206;-58
2022/04/09 13:24:54;;;;;;;3.35;2.15;;;18.90;55.50;;;;;;4953993;28;20302;-57
2022/04/09 13:27:24;;;;;;;3.90;2.10;;;18.90;55.50;;;;;;4953754;28;20310;-53
2022/04/09 13:29:56;;;;;;;3.38;2.05;;;18.90;55.50;;;;;;4952524;28;20261;-57
2022/04/09 13:32:29;;;;;;;4.32;2.28;;;18.80;55.40;;;;;;4953939;28;20258;-57
2022/04/09 13:34:59;;;;;;;5.82;2.40;;;18.80;55.40;;;;;;4953880;28;20557;-55
2022/04/09 13:37:30;;;;;;;5.20;2.47;;;18.80;55.40;;;;;;4953858;28;20289;-58
2022/04/09 13:40:02;;;;;;;4.53;2.10;;;18.80;55.50;;;;;;4953653;28;20670;-52
2022/04/09 13:42:33;;;;;;;3.95;2.10;;;18.80;55.50;;;;;;4953147;28;20282;-57
2022/04/09 13:45:05;;;;;;;5.25;2.78;;;18.70;55.40;;;;;;4952998;28;20289;-55
2022/04/09 13:47:35;;;;;;;3.55;2.10;;;18.70;55.40;;;;;;4952440;28;20294;-55
2022/04/09 13:50:06;;;;;;;4.15;2.20;;;18.70;55.40;;;;;;4952359;28;20302;-53
2022/04/09 13:52:36;;;;;;;3.58;2.38;;;18.70;55.40;;;;;;4952846;28;20290;-53
2022/04/09 13:55:10;;;;;;;4.15;2.10;;;18.70;55.50;;;;;;4952779;28;20282;-55
2022/04/09 13:57:40;;;;;;;3.33;2.10;;;18.70;55.50;;;;;;4933868;29;20282;-58
2022/04/09 14:00:11;;;;;;;4.90;2.50;;;18.70;55.50;;;;;;4933547;29;20303;-53
2022/04/09 14:02:43;;;;;;;4.20;2.35;;;18.70;55.50;;;;;;4932979;29;20290;-53
2022/04/09 14:05:14;;;;;;;3.47;1.98;;;18.60;55.40;;;;;;4951714;29;20207;-53
2022/04/09 14:07:44;;;;;;;4.30;2.00;;;18.60;55.40;;;;;;4952615;28;20742;-55
2022/04/09 14:10:17;;;;;;;3.80;1.85;;;18.70;55.50;;;;;;4952366;28;20307;-55
2022/04/09 14:12:48;;;;;;;3.22;1.98;;;18.60;55.40;;;;;;4952487;28;20198;-56
2022/04/09 14:15:18;;;;;;;2.80;1.63;;;18.60;55.40;;;;;;4952445;28;20286;-54
2022/04/09 14:17:51;;;;;;;4.20;2.20;;;18.60;55.50;;;;;;4952788;28;20233;-52
2022/04/09 14:20:21;;;;;;;4.40;2.30;;;18.60;55.50;;;;;;4951927;28;20240;-57
2022/04/09 14:22:52;;;;;;;3.33;2.00;;;18.50;55.40;;;;;;4952340;28;20613;-55
2022/04/09 14:25:24;;;;;;;2.88;1.70;;;18.50;56.00;;;;;;4952277;28;20663;-55
2022/04/09 14:27:55;;;;;;;5.38;2.10;;;18.50;55.40;;;;;;4952329;28;20282;-53
2022/04/09 14:30:25;;;;;;;3.22;1.95;;;18.50;55.50;;;;;;4951533;28;20578;-55
2022/04/09 14:32:56;;;;;;;4.53;2.20;;;18.50;55.50;;;;;;4951781;28;20286;-57
2022/04/09 14:35:27;;;;;;;4.18;2.20;;;18.50;55.50;;;;;;4951062;28;20302;-57
2022/04/09 14:37:58;;;;;;;4.38;2.03;;;18.50;55.50;;;;;;4948407;29;20191;-54
2022/04/09 14:40:30;;;;;;;3.33;1.85;;;18.50;55.50;;;;;;4951826;28;20222;-53
2022/04/09 14:43:01;;;;;;;3.88;2.22;;;18.50;55.40;;;;;;4952132;28;20301;-56
2022/04/09 14:45:32;;;;;;;3.13;2.00;;;18.50;55.40;;;;;;4952156;28;20246;-56
2022/04/09 14:48:02;;;;;;;2.42;1.45;;;18.40;55.30;;;;;;4951748;28;20293;-55
2022/04/09 14:50:33;;;;;;;3.15;1.92;;;18.40;55.40;;;;;;4951427;28;20327;-56
2022/04/09 14:53:04;;;;;;;3.70;1.83;;;18.40;55.40;;;;;;4951557;28;20726;-54
2022/04/09 14:55:36;;;;;;;4.10;2.35;;;18.40;55.40;;;;;;4951868;28;20203;-57
2022/04/09 14:58:07;;;;;;;3.70;1.70;;;18.40;55.40;;;;;;4951990;28;20285;-53
2022/04/09 15:00:38;;;;;;;4.65;1.95;;;18.40;55.40;;;;;;4951901;28;20234;-54
2022/04/09 15:03:08;;;;;;;3.70;2.15;;;18.40;55.40;;;;;;4951718;28;20203;-55
2022/04/09 15:05:39;;;;;;;2.85;1.85;;;18.40;55.40;;;;;;4951161;28;20286;-56
2022/04/09 15:08:10;;;;;;;4.30;2.38;;;18.30;55.40;;;;;;4951542;28;20226;-57
2022/04/09 15:10:43;;;;;;;3.10;1.98;;;18.30;55.40;;;;;;4951766;28;20623;-55